Time;durP1;ratioP1;P1;durP2;ratioP2;P2;SDS_P1;SDS_P2;PMS_P1;PMS_P2;Temp;Humidity;BMP_temperature;BMP_pressure;BME280_temperature;BME280_humidity;BME280_pressure;Samples;Min_cycle;Max_cycle;Signal;HPM_P1;HPM_P2
2022/03/02 00:00:43;;;;;;;;;;;;;;;-4.25;61.29;102405.05;1587358;89;20567;-73
2022/03/02 00:03:09;;;;;;;;;;;;;;;-4.27;61.49;102407.45;1660366;85;20134;-73
2022/03/02 00:05:38;;;;;;;;;;;;;;;-4.27;61.63;102396.09;1664421;84;20503;-73
2022/03/02 00:08:05;;;;;;;;;;;;;;;-4.24;61.61;102401.75;1646970;85;20232;-73
2022/03/02 00:10:31;;;;;;;;;;;;;;;-4.21;61.57;102403.23;1647148;85;20116;-73
2022/03/02 00:12:57;;;;;;;;;;;;;;;-4.22;61.61;102395.16;1648658;85;20244;-73
2022/03/02 00:15:23;;;;;;;;;;;;;;;-4.23;61.79;102389.23;1648104;85;20156;-73
2022/03/02 00:17:49;;;;;;;;;;;;;;;-4.21;61.68;102389.34;1673890;84;20479;-73
2022/03/02 00:20:15;;;;;;;;;;;;;;;-4.25;61.41;102390.77;1660008;84;20143;-73
2022/03/02 00:22:41;;;;;;;;;;;;;;;-4.32;61.52;102388.95;1647632;85;20487;-73
2022/03/02 00:25:08;;;;;;;;;;;;;;;-4.36;61.54;102386.20;1656748;84;20212;-73
2022/03/02 00:27:35;;;;;;;;;;;;;;;-4.40;61.54;102390.92;1657642;85;20182;-73
2022/03/02 00:30:02;;;;;;;;;;;;;;;-4.45;61.55;102387.19;1610179;88;20193;-73
2022/03/02 00:32:27;;;;;;;;;;;;;;;-4.46;61.59;102384.16;1586354;89;20210;-73
2022/03/02 00:34:53;;;;;;;;;;;;;;;-4.45;61.77;102382.13;1674798;85;20165;-73
2022/03/02 00:37:22;;;;;;;;;;;;;;;-4.45;61.67;102381.75;1659974;84;20211;-73
2022/03/02 00:39:48;;;;;;;;;;;;;;;-4.46;61.62;102376.20;1686214;84;20204;-73
2022/03/02 00:42:14;;;;;;;;;;;;;;;-4.44;61.68;102370.01;1655801;84;20164;-73
2022/03/02 00:44:42;;;;;;;;;;;;;;;-4.47;61.69;102364.35;1646521;85;20164;-73
2022/03/02 00:47:10;;;;;;;;;;;;;;;-4.52;61.60;102369.83;1668142;85;20184;-73
2022/03/02 00:49:37;;;;;;;;;;;;;;;-4.56;61.69;102366.59;1668778;84;20184;-73
2022/03/02 00:52:09;;;;;;;;;;;;;;;-4.62;61.74;102358.57;1655383;86;20256;-73
2022/03/02 00:54:34;;;;;;;;;;;;;;;-4.62;61.76;102363.62;1610898;88;20139;-73
2022/03/02 00:57:00;;;;;;;;;;;;;;;-4.67;61.70;102356.59;1648071;85;20262;-73
2022/03/02 00:59:25;;;;;;;;;;;;;;;-4.70;61.76;102358.92;1633220;86;20241;-73
2022/03/02 01:01:51;;;;;;;;;;;;;;;-4.73;61.67;102359.08;1653880;85;20206;-73
2022/03/02 01:04:18;;;;;;;;;;;;;;;-4.77;61.62;102354.19;1675549;85;20190;-73
2022/03/02 01:06:59;;;;;;;;;;;;;;;-4.76;62.04;102353.81;1618263;87;20170;-73
2022/03/02 01:09:26;;;;;;;;;;;;;;;-4.74;61.99;102350.62;1675441;85;20132;-73
2022/03/02 01:11:54;;;;;;;;;;;;;;;-4.77;61.95;102347.88;1637382;85;20668;-73
2022/03/02 01:14:20;;;;;;;;;;;;;;;-4.76;62.06;102353.42;1637585;86;20184;-73
2022/03/02 01:16:45;;;;;;;;;;;;;;;-4.75;62.06;102346.73;1643046;86;20235;-73
2022/03/02 01:19:13;;;;;;;;;;;;;;;-4.74;62.09;102345.58;1637241;86;20136;-73
2022/03/02 01:21:38;;;;;;;;;;;;;;;-4.73;62.11;102344.81;1637426;86;20148;-73
2022/03/02 01:24:04;;;;;;;;;;;;;;;-4.73;62.06;102343.55;1638115;86;20195;-73
2022/03/02 01:26:31;;;;;;;;;;;;;;;-4.78;61.99;102345.25;1637468;86;20168;-73
2022/03/02 01:28:57;;;;;;;;;;;;;;;-4.82;62.02;102355.87;1637484;86;20188;-73
2022/03/02 01:31:25;;;;;;;;;;;;;;;-4.84;62.18;102357.03;1637155;86;20198;-73
2022/03/02 01:33:51;;;;;;;;;;;;;;;-4.84;62.11;102362.45;1639923;86;20132;-73
2022/03/02 01:36:18;;;;;;;;;;;;;;;-4.84;62.01;102353.62;1637872;86;20160;-73
2022/03/02 01:38:44;;;;;;;;;;;;;;;-4.86;62.00;102353.89;1637828;86;20212;-73
2022/03/02 01:41:15;;;;;;;;;;;;;;;-4.90;61.99;102349.39;1637401;86;20193;-73
2022/03/02 01:43:41;;;;;;;;;;;;;;;-4.90;62.04;102338.03;1639511;86;20096;-73
2022/03/02 01:46:07;;;;;;;;;;;;;;;-4.90;62.21;102332.99;1652712;86;20157;-73
2022/03/02 01:48:32;;;;;;;;;;;;;;;-4.87;62.27;102337.88;1639208;84;20179;-73
2022/03/02 01:50:58;;;;;;;;;;;;;;;-4.88;62.19;102335.25;1640310;86;20211;-73
2022/03/02 01:53:24;;;;;;;;;;;;;;;-4.92;62.35;102327.83;1659144;85;20487;-73
2022/03/02 01:55:50;;;;;;;;;;;;;;;-4.93;62.31;102327.72;1645112;84;20155;-73
2022/03/02 01:58:16;;;;;;;;;;;;;;;-4.97;62.17;102321.95;1637329;86;20179;-73
2022/03/02 02:00:43;;;;;;;;;;;;;;;-5.00;62.41;102326.01;1640991;86;20523;-73
2022/03/02 02:03:09;;;;;;;;;;;;;;;-5.00;62.38;102318.44;1664080;84;20157;-73
2022/03/02 02:05:35;;;;;;;;;;;;;;;-5.02;62.60;102308.62;1661341;84;20179;-73
2022/03/02 02:08:01;;;;;;;;;;;;;;;-5.01;62.59;102302.81;1637294;86;20602;-73
2022/03/02 02:10:27;;;;;;;;;;;;;;;-5.00;62.63;102304.95;1639661;84;20297;-73
2022/03/02 02:12:53;;;;;;;;;;;;;;;-5.03;62.38;102304.72;1646783;84;20830;-73
2022/03/02 02:15:19;;;;;;;;;;;;;;;-5.08;62.40;102306.03;1639089;86;20922;-73
2022/03/02 02:17:45;;;;;;;;;;;;;;;-5.11;62.47;102295.72;1656191;84;20793;-73
2022/03/02 02:20:11;;;;;;;;;;;;;;;-5.09;62.55;102295.06;1641882;86;20195;-73
2022/03/02 02:22:42;;;;;;;;;;;;;;;-5.07;62.51;102293.53;1664588;84;20203;-73
2022/03/02 02:25:08;;;;;;;;;;;;;;;-5.05;62.63;102296.16;1665074;84;20596;-72
2022/03/02 02:27:35;;;;;;;;;;;;;;;-5.05;62.73;102288.22;1655207;86;20653;-73
2022/03/02 02:30:01;;;;;;;;;;;;;;;-5.03;62.59;102284.55;1649705;86;20506;-73
2022/03/02 02:32:27;;;;;;;;;;;;;;;-5.03;62.54;102279.50;1649327;86;20176;-73
2022/03/02 02:34:53;;;;;;;;;;;;;;;-5.05;62.62;102274.34;1637441;86;20507;-73
2022/03/02 02:37:19;;;;;;;;;;;;;;;-5.09;62.55;102271.11;1637563;87;20715;-72
2022/03/02 02:39:54;;;;;;;;;;;;;;;-5.15;62.37;102277.34;1637582;86;20578;-73
2022/03/02 02:42:19;;;;;;;;;;;;;;;-5.23;62.53;102267.98;1662975;86;20186;-73
2022/03/02 02:44:45;;;;;;;;;;;;;;;-5.28;62.44;102269.28;1652889;84;20293;-73
2022/03/02 02:47:12;;;;;;;;;;;;;;;-5.33;62.59;102266.80;1644024;86;20780;-72
2022/03/02 02:49:37;;;;;;;;;;;;;;;-5.34;62.68;102265.05;1637490;86;20482;-73
2022/03/02 02:52:04;;;;;;;;;;;;;;;-5.30;62.77;102262.38;1645869;86;20215;-73
2022/03/02 02:54:30;;;;;;;;;;;;;;;-5.27;62.78;102257.56;1650549;86;20175;-73
2022/03/02 02:56:55;;;;;;;;;;;;;;;-5.27;62.67;102253.78;1680772;84;20285;-73
2022/03/02 02:59:21;;;;;;;;;;;;;;;-5.29;62.66;102251.14;1689846;84;20860;-72
2022/03/02 03:01:47;;;;;;;;;;;;;;;-5.29;62.62;102256.56;1678115;85;20119;-73
2022/03/02 03:04:13;;;;;;;;;;;;;;;-5.32;62.67;102255.95;1678605;85;20299;-73
2022/03/02 03:06:39;;;;;;;;;;;;;;;-5.34;62.67;102257.48;1650262;86;20206;-73
2022/03/02 03:09:05;;;;;;;;;;;;;;;-5.38;62.76;102252.59;1598841;88;20160;-73
2022/03/02 03:11:32;;;;;;;;;;;;;;;-5.36;62.85;102246.41;1596721;89;20565;-73
2022/03/02 03:14:00;;;;;;;;;;;;;;;-5.36;62.90;102245.16;1599497;88;20476;-73
2022/03/02 03:16:25;;;;;;;;;;;;;;;-5.39;62.76;102240.77;1608302;88;20265;-73
2022/03/02 03:18:51;;;;;;;;;;;;;;;-5.44;62.72;102241.19;1648087;86;20208;-73
2022/03/02 03:21:17;;;;;;;;;;;;;;;-5.49;62.77;102238.32;1649272;86;20923;-73
2022/03/02 03:23:42;;;;;;;;;;;;;;;-5.52;62.91;102240.61;1622525;87;20215;-73
2022/03/02 03:26:14;;;;;;;;;;;;;;;-5.50;62.86;102234.05;1616793;87;20591;-73
2022/03/02 03:28:40;;;;;;;;;;;;;;;-5.49;62.92;102234.92;1622293;87;20836;-73
2022/03/02 03:31:10;;;;;;;;;;;;;;;-5.52;62.83;102236.83;1617734;88;20210;-73
2022/03/02 03:33:46;;;;;;;;;;;;;;;-5.57;62.69;102231.83;1596497;88;20327;-73
2022/03/02 03:36:12;;;;;;;;;;;;;;;-5.59;62.82;102222.02;1597461;89;20187;-74
2022/03/02 03:38:37;;;;;;;;;;;;;;;-5.61;62.83;102221.41;1596645;89;20810;-73
2022/03/02 03:41:03;;;;;;;;;;;;;;;-5.64;63.01;102216.14;1606826;88;20231;-73
2022/03/02 03:43:29;;;;;;;;;;;;;;;-5.60;63.06;102219.00;1596850;88;20194;-73
2022/03/02 03:45:55;;;;;;;;;;;;;;;-5.59;63.08;102222.41;1603356;88;20142;-73
2022/03/02 03:48:23;;;;;;;;;;;;;;;-5.63;62.93;102225.08;1632078;86;20499;-73
2022/03/02 03:50:49;;;;;;;;;;;;;;;-5.68;63.00;102219.69;1622705;87;20171;-72
2022/03/02 03:53:14;;;;;;;;;;;;;;;-5.70;62.89;102216.17;1622763;87;20287;-73
2022/03/02 03:55:40;;;;;;;;;;;;;;;-5.75;62.92;102215.38;1622773;87;20179;-73
2022/03/02 03:58:07;;;;;;;;;;;;;;;-5.77;62.89;102211.86;1622892;87;20207;-73
2022/03/02 04:00:32;;;;;;;;;;;;;;;-5.80;62.97;102209.11;1598141;89;20213;-72
2022/03/02 04:02:58;;;;;;;;;;;;;;;-5.82;62.96;102208.11;1582998;90;20184;-73
2022/03/02 04:05:24;;;;;;;;;;;;;;;-5.81;63.00;102208.61;1652865;85;20323;-73
2022/03/02 04:07:50;;;;;;;;;;;;;;;-5.82;63.07;102216.93;1616676;87;20237;-73
2022/03/02 04:10:17;;;;;;;;;;;;;;;-5.82;62.90;102224.48;1647566;87;20481;-73
2022/03/02 04:12:44;;;;;;;;;;;;;;;-5.85;63.03;102218.84;1646646;85;20164;-73
2022/03/02 04:15:11;;;;;;;;;;;;;;;-5.89;63.07;102214.75;1663476;85;20355;-73
2022/03/02 04:17:38;;;;;;;;;;;;;;;-5.90;63.16;102208.83;1675294;84;20174;-73
2022/03/02 04:20:05;;;;;;;;;;;;;;;-5.89;63.07;102210.97;1670670;84;20470;-73
2022/03/02 04:22:31;;;;;;;;;;;;;;;-5.92;63.22;102206.95;1646846;85;20452;-73
2022/03/02 04:24:57;;;;;;;;;;;;;;;-5.93;63.07;102212.76;1646773;85;20140;-73
2022/03/02 04:27:23;;;;;;;;;;;;;;;-5.97;63.03;102215.80;1650557;85;20183;-72
2022/03/02 04:29:49;;;;;;;;;;;;;;;-6.00;63.02;102215.19;1674743;85;20246;-73
2022/03/02 04:32:15;;;;;;;;;;;;;;;-6.02;63.15;102215.07;1660425;84;20274;-73
2022/03/02 04:34:46;;;;;;;;;;;;;;;-6.03;63.05;102208.28;1646510;85;20200;-73
2022/03/02 04:37:12;;;;;;;;;;;;;;;-6.05;63.09;102208.55;1647443;86;20664;-73
2022/03/02 04:39:38;;;;;;;;;;;;;;;-6.08;63.04;102208.31;1648821;85;20131;-72
2022/03/02 04:42:05;;;;;;;;;;;;;;;-6.13;63.12;102204.56;1589437;84;5000999;-72
2022/03/02 04:44:31;;;;;;;;;;;;;;;-6.14;63.09;102203.19;1650363;85;20188;-72
2022/03/02 04:46:57;;;;;;;;;;;;;;;-6.11;63.20;102208.45;1649931;85;20226;-72
2022/03/02 04:49:23;;;;;;;;;;;;;;;-6.14;63.17;102205.33;1646396;86;20224;-73
2022/03/02 04:51:49;;;;;;;;;;;;;;;-6.13;63.31;102204.56;1646812;87;20259;-73
2022/03/02 04:57:05;;;;;;;;;;;;;;;-6.07;63.56;102205.03;1673536;84;20532;-73
2022/03/02 04:59:31;;;;;;;;;;;;;;;-6.03;63.39;102199.47;1689098;84;20177;-72
2022/03/02 05:01:58;;;;;;;;;;;;;;;-6.05;63.30;102198.47;1658424;84;20256;-72
2022/03/02 05:04:26;;;;;;;;;;;;;;;-6.07;63.27;102193.70;1633679;87;20222;-73
2022/03/02 05:06:52;;;;;;;;;;;;;;;-6.08;63.29;102188.17;1628642;87;20163;-73
2022/03/02 05:09:18;;;;;;;;;;;;;;;-6.09;63.23;102187.67;1635570;86;20176;-73
2022/03/02 05:11:44;;;;;;;;;;;;;;;-6.09;63.31;102186.80;1665709;84;20263;-73
2022/03/02 05:14:09;;;;;;;;;;;;;;;-6.09;63.43;102183.90;1681959;84;20674;-73
2022/03/02 05:16:36;;;;;;;;;;;;;;;-6.11;63.27;102179.51;1669070;84;20223;-73
2022/03/02 05:19:02;;;;;;;;;;;;;;;-6.14;63.31;102172.59;1652138;85;20192;-73
2022/03/02 05:21:27;;;;;;;;;;;;;;;-6.18;63.28;102176.02;1667875;84;20288;-73
2022/03/02 05:23:53;;;;;;;;;;;;;;;-6.23;63.27;102168.50;1675316;84;21255;-75
2022/03/02 05:26:19;;;;;;;;;;;;;;;-6.25;63.34;102168.80;1663940;84;20285;-75
2022/03/02 05:28:45;;;;;;;;;;;;;;;-6.24;63.45;102168.91;1674454;84;20169;-74
2022/03/02 05:31:10;;;;;;;;;;;;;;;-6.19;63.49;102166.34;1677691;84;20196;-75
2022/03/02 05:33:36;;;;;;;;;;;;;;;-6.20;63.39;102162.45;1676370;84;20739;-75
2022/03/02 05:36:02;;;;;;;;;;;;;;;-6.23;63.34;102157.17;1681372;84;20213;-75
2022/03/02 05:38:28;;;;;;;;;;;;;;;-6.27;63.40;102164.91;1669129;83;20153;-77
2022/03/02 05:40:54;;;;;;;;;;;;;;;-6.31;63.21;102167.08;1686453;84;20418;-75
2022/03/02 05:43:20;;;;;;;;;;;;;;;-6.36;63.39;102171.75;1678466;84;20754;-76
2022/03/02 05:45:45;;;;;;;;;;;;;;;-6.36;63.79;102170.50;1683819;83;20302;-74
2022/03/02 05:48:11;;;;;;;;;;;;;;;-6.35;63.73;102176.03;1668817;84;20706;-74
2022/03/02 05:50:37;;;;;;;;;;;;;;;-6.35;63.67;102173.13;1664638;85;20177;-73
2022/03/02 05:53:03;;;;;;;;;;;;;;;-6.34;63.72;102168.98;1678811;84;20190;-72
2022/03/02 05:55:29;;;;;;;;;;;;;;;-6.26;63.86;102174.59;1686188;84;21262;-73
2022/03/02 05:57:54;;;;;;;;;;;;;;;-6.22;63.90;102171.52;1681328;84;20188;-73
2022/03/02 06:00:20;;;;;;;;;;;;;;;-6.15;63.91;102175.87;1666409;84;20190;-73
2022/03/02 06:02:46;;;;;;;;;;;;;;;-6.14;63.85;102170.08;1664581;84;20184;-73
2022/03/02 06:05:12;;;;;;;;;;;;;;;-6.06;63.94;102180.73;1674600;84;20141;-73
2022/03/02 06:07:38;;;;;;;;;;;;;;;-5.97;63.81;102183.95;1672832;84;20277;-74
2022/03/02 06:10:05;;;;;;;;;;;;;;;-5.88;64.09;102191.28;1634638;86;20160;-73
2022/03/02 06:12:32;;;;;;;;;;;;;;;-5.76;64.24;102192.20;1656739;84;20195;-73
2022/03/02 06:14:58;;;;;;;;;;;;;;;-5.60;64.29;102190.41;1647770;85;20205;-74
2022/03/02 06:17:26;;;;;;;;;;;;;;;-5.44;64.31;102183.22;1663195;85;20188;-74
2022/03/02 06:19:52;;;;;;;;;;;;;;;-5.34;64.17;102179.34;1658587;85;388380;-74
2022/03/02 06:22:21;;;;;;;;;;;;;;;-5.25;64.31;102179.14;1635916;86;20159;-74
2022/03/02 06:24:47;;;;;;;;;;;;;;;-5.15;64.37;102176.09;1668125;85;20188;-74
2022/03/02 06:27:12;;;;;;;;;;;;;;;-5.03;64.37;102183.67;1655813;85;20175;-73
2022/03/02 06:29:38;;;;;;;;;;;;;;;-4.92;64.42;102183.17;1674369;84;20173;-73
2022/03/02 06:32:05;;;;;;;;;;;;;;;-4.82;64.47;102176.37;1673422;84;20260;-73
2022/03/02 06:34:32;;;;;;;;;;;;;;;-4.66;64.58;102178.30;1674006;84;20165;-73
2022/03/02 06:36:57;;;;;;;;;;;;;;;-4.49;64.48;102171.52;1670199;84;20303;-73
2022/03/02 06:39:24;;;;;;;;;;;;;;;-4.28;64.71;102168.72;1669290;84;20180;-73
2022/03/02 06:41:53;;;;;;;;;;;;;;;-4.04;64.81;102166.19;1672299;84;20177;-73
2022/03/02 06:44:29;;;;;;;;;;;;;;;-3.78;64.92;102165.80;1665868;84;20202;-73
2022/03/02 06:47:09;;;;;;;;;;;;;;;-3.58;64.80;102163.29;1669596;85;20182;-73
2022/03/02 06:50:01;;;;;;;;;;;;;;;-3.41;64.89;102166.14;1669358;84;20128;-74
2022/03/02 06:52:36;;;;;;;;;;;;;;;-3.18;64.96;102163.84;1621378;86;20217;-74
2022/03/02 06:55:06;;;;;;;;;;;;;;;-2.89;65.06;102158.06;1670947;84;20181;-74
2022/03/02 06:57:36;;;;;;;;;;;;;;;-2.58;65.12;102158.68;1667718;84;20459;-74
2022/03/02 07:00:16;;;;;;;;;;;;;;;-2.25;65.07;102158.21;1671481;84;20090;-74
2022/03/02 07:03:02;;;;;;;;;;;;;;;-1.91;65.12;102149.66;1658702;86;20123;-74
2022/03/02 07:05:28;;;;;;;;;;;;;;;-1.57;65.06;102151.23;1649206;86;20129;-74
2022/03/02 07:07:54;;;;;;;;;;;;;;;-1.22;65.15;102147.27;1638076;86;20129;-74
2022/03/02 07:10:20;;;;;;;;;;;;;;;-0.98;65.11;102141.38;1638219;86;20164;-74
2022/03/02 07:12:46;;;;;;;;;;;;;;;-0.84;65.07;102150.62;1654770;86;20228;-74
2022/03/02 07:15:12;;;;;;;;;;;;;;;-0.60;65.33;102155.77;1655048;86;20212;-74
2022/03/02 07:17:39;;;;;;;;;;;;;;;-0.33;65.15;102144.91;1665877;84;20099;-74
2022/03/02 07:20:08;;;;;;;;;;;;;;;-0.14;65.23;102142.53;1647656;84;20137;-74
2022/03/02 07:22:39;;;;;;;;;;;;;;;0.14;65.36;102143.91;1655985;86;20141;-74
2022/03/02 07:25:18;;;;;;;;;;;;;;;0.42;65.35;102143.62;1677374;84;20191;-74
2022/03/02 07:27:45;;;;;;;;;;;;;;;0.65;65.39;102135.02;1683005;83;20204;-74
2022/03/02 07:30:12;;;;;;;;;;;;;;;0.97;65.53;102139.52;1663363;84;20189;-74
2022/03/02 07:32:41;;;;;;;;;;;;;;;1.27;65.52;102137.09;1650234;84;20130;-74
2022/03/02 07:35:08;;;;;;;;;;;;;;;1.55;65.45;102134.13;1664782;84;20204;-74
2022/03/02 07:37:34;;;;;;;;;;;;;;;1.81;65.31;102126.73;1664272;84;20181;-74
2022/03/02 07:40:00;;;;;;;;;;;;;;;1.97;65.32;102124.92;1664498;84;20253;-74
2022/03/02 07:42:26;;;;;;;;;;;;;;;2.16;65.26;102126.55;1662353;84;20204;-74
2022/03/02 07:44:53;;;;;;;;;;;;;;;2.37;65.41;102124.02;1641473;86;20237;-74
2022/03/02 07:47:21;;;;;;;;;;;;;;;2.64;65.49;102122.57;1664837;84;20307;-74
2022/03/02 07:49:47;;;;;;;;;;;;;;;2.91;65.43;102123.20;1664300;84;20238;-75
2022/03/02 07:52:15;;;;;;;;;;;;;;;3.10;65.45;102120.97;1664710;84;20177;-74
2022/03/02 07:54:42;;;;;;;;;;;;;;;3.22;65.55;102123.95;1664327;84;20189;-74
2022/03/02 07:57:11;;;;;;;;;;;;;;;3.35;65.56;102121.46;1661852;84;20162;-74
2022/03/02 07:59:41;;;;;;;;;;;;;;;3.54;65.55;102120.92;1660221;84;20308;-74
2022/03/02 08:02:09;;;;;;;;;;;;;;;3.72;65.55;102128.77;1650277;85;20301;-75
2022/03/02 08:04:39;;;;;;;;;;;;;;;3.87;65.72;102129.33;1646414;84;20436;-75
2022/03/02 08:07:05;;;;;;;;;;;;;;;4.03;65.85;102129.05;1664314;84;20420;-74
2022/03/02 08:09:32;;;;;;;;;;;;;;;4.15;65.82;102122.20;1651246;84;20495;-74
2022/03/02 08:12:06;;;;;;;;;;;;;;;4.22;65.92;102117.72;1636602;86;20157;-74
2022/03/02 08:14:28;;;;;;;;;;;;;;;4.24;65.73;102120.80;1658605;86;20202;-74
2022/03/02 08:17:02;;;;;;;;;;;;;;;4.27;65.66;102117.06;1659085;84;20520;-74
2022/03/02 08:19:28;;;;;;;;;;;;;;;4.33;65.69;102115.12;1659149;86;20453;-74
2022/03/02 08:21:59;;;;;;;;;;;;;;;4.35;65.73;102113.89;1664080;84;20165;-74
2022/03/02 08:24:29;;;;;;;;;;;;;;;4.38;65.38;102112.30;1660681;86;20473;-74
2022/03/02 08:27:00;;;;;;;;;;;;;;;4.41;65.65;102106.41;1649117;84;20190;-74
2022/03/02 08:29:29;;;;;;;;;;;;;;;4.34;65.50;102105.34;1662148;84;20182;-74
2022/03/02 08:31:58;;;;;;;;;;;;;;;4.33;65.34;102096.78;1661071;86;20166;-74
2022/03/02 08:34:25;;;;;;;;;;;;;;;4.38;65.45;102099.50;1664951;84;20186;-74
2022/03/02 08:36:52;;;;;;;;;;;;;;;4.48;65.47;102107.95;1652444;84;20206;-74
2022/03/02 08:39:18;;;;;;;;;;;;;;;4.54;65.48;102104.30;1659776;84;20126;-74
2022/03/02 08:41:43;;;;;;;;;;;;;;;4.50;65.25;102097.75;1642900;84;20199;-75
2022/03/02 08:44:12;;;;;;;;;;;;;;;4.48;65.17;102095.55;1643653;84;20762;-75
2022/03/02 08:46:40;;;;;;;;;;;;;;;4.48;65.22;102095.14;1657872;86;20332;-74
2022/03/02 08:49:06;;;;;;;;;;;;;;;4.50;65.32;102097.34;1654290;84;20876;-74
2022/03/02 08:51:34;;;;;;;;;;;;;;;4.50;65.13;102092.62;1649777;86;20185;-74
2022/03/02 08:54:01;;;;;;;;;;;;;;;4.43;64.86;102086.44;1661555;86;20115;-74
2022/03/02 08:56:27;;;;;;;;;;;;;;;4.34;64.73;102086.12;1661810;86;20130;-74
2022/03/02 08:58:55;;;;;;;;;;;;;;;4.24;64.52;102081.52;1658099;85;20131;-74
2022/03/02 09:01:23;;;;;;;;;;;;;;;4.14;64.20;102082.06;1657177;84;20123;-75
2022/03/02 09:03:53;;;;;;;;;;;;;;;3.97;64.43;102081.48;1655829;84;20450;-76
2022/03/02 09:06:20;;;;;;;;;;;;;;;3.85;64.47;102079.78;1649749;86;20126;-75
2022/03/02 09:08:46;;;;;;;;;;;;;;;3.78;64.69;102085.50;1641486;84;20174;-74
2022/03/02 09:11:12;;;;;;;;;;;;;;;3.74;64.38;102078.13;1652619;84;20284;-74
2022/03/02 09:13:39;;;;;;;;;;;;;;;3.69;64.37;102082.21;1664154;86;20182;-74
2022/03/02 09:16:06;;;;;;;;;;;;;;;3.67;64.38;102083.84;1664114;84;20182;-74
2022/03/02 09:18:32;;;;;;;;;;;;;;;3.63;64.18;102075.22;1655914;84;20215;-74
2022/03/02 09:21:04;;;;;;;;;;;;;;;3.62;64.33;102076.04;1664966;84;20130;-74
2022/03/02 09:23:34;;;;;;;;;;;;;;;3.62;64.15;102075.17;1664580;84;20186;-74
2022/03/02 09:26:05;;;;;;;;;;;;;;;3.60;64.00;102071.69;1663083;84;20209;-74
2022/03/02 09:28:37;;;;;;;;;;;;;;;3.59;64.03;102070.81;1661738;86;20317;-74
2022/03/02 09:31:06;;;;;;;;;;;;;;;3.61;64.03;102078.13;1653334;84;20225;-74
2022/03/02 09:33:34;;;;;;;;;;;;;;;3.59;63.90;102082.32;1651895;84;20152;-74
2022/03/02 09:36:03;;;;;;;;;;;;;;;3.61;63.76;102081.09;1651038;86;20182;-74
2022/03/02 09:38:32;;;;;;;;;;;;;;;3.61;63.45;102083.66;1702492;84;20181;-74
2022/03/02 09:41:00;;;;;;;;;;;;;;;3.60;63.48;102076.80;1648321;84;20307;-74
2022/03/02 09:43:28;;;;;;;;;;;;;;;3.59;63.43;102077.20;1646507;84;20239;-74
2022/03/02 09:45:58;;;;;;;;;;;;;;;3.61;63.37;102077.27;1649398;86;20101;-74
2022/03/02 09:48:32;;;;;;;;;;;;;;;3.62;63.30;102077.72;1658484;86;20095;-74
2022/03/02 09:51:02;;;;;;;;;;;;;;;3.68;63.23;102071.52;1653342;86;20130;-74
2022/03/02 09:53:30;;;;;;;;;;;;;;;3.72;63.35;102068.25;1649074;86;20178;-74
2022/03/02 09:55:58;;;;;;;;;;;;;;;3.75;63.25;102067.48;1646942;86;20230;-74
2022/03/02 09:58:24;;;;;;;;;;;;;;;3.76;63.25;102073.06;1649754;86;20099;-74
2022/03/02 10:00:53;;;;;;;;;;;;;;;3.76;62.93;102071.38;1665122;84;20122;-74
2022/03/02 10:03:20;;;;;;;;;;;;;;;3.80;62.96;102068.11;1661909;84;20188;-74
2022/03/02 10:05:48;;;;;;;;;;;;;;;3.81;63.17;102053.22;1640129;86;20112;-74
2022/03/02 10:08:20;;;;;;;;;;;;;;;3.82;63.02;102054.96;1659512;86;20094;-74
2022/03/02 10:10:48;;;;;;;;;;;;;;;3.86;63.03;102061.06;1665535;86;20122;-74
2022/03/02 10:13:17;;;;;;;;;;;;;;;3.88;62.83;102059.02;1657334;86;20131;-75
2022/03/02 10:15:44;;;;;;;;;;;;;;;3.91;62.86;102054.41;1652041;84;20107;-74
2022/03/02 10:18:13;;;;;;;;;;;;;;;3.91;62.78;102055.28;1648889;84;20124;-74
2022/03/02 10:20:49;;;;;;;;;;;;;;;3.93;62.66;102049.80;1646802;86;20121;-74
2022/03/02 10:23:21;;;;;;;;;;;;;;;3.97;62.95;102050.78;1666566;84;20110;-74
2022/03/02 10:26:11;;;;;;;;;;;;;;;3.99;62.63;102042.34;1651552;85;20101;-74
2022/03/02 10:28:43;;;;;;;;;;;;;;;4.01;62.73;102035.98;1659323;86;20138;-74
2022/03/02 10:31:28;;;;;;;;;;;;;;;4.04;62.50;102036.50;1655869;86;20094;-74
2022/03/02 10:34:03;;;;;;;;;;;;;;;4.05;62.65;102031.44;1661867;85;20162;-74
2022/03/02 10:36:30;;;;;;;;;;;;;;;4.07;62.58;102025.09;1656403;86;20331;-74
2022/03/02 10:39:05;;;;;;;;;;;;;;;4.11;62.67;102032.05;1663696;84;20094;-74
2022/03/02 10:41:37;;;;;;;;;;;;;;;4.13;62.44;102031.28;1663422;86;20119;-74
2022/03/02 10:44:22;;;;;;;;;;;;;;;4.15;62.37;102026.21;1658165;84;20141;-74
2022/03/02 10:46:53;;;;;;;;;;;;;;;4.19;62.33;102025.46;1627884;85;20192;-74
2022/03/02 10:49:20;;;;;;;;;;;;;;;4.22;62.42;102026.43;1653402;86;20197;-75
2022/03/02 10:51:47;;;;;;;;;;;;;;;4.27;62.46;102022.73;1659188;84;20212;-75
2022/03/02 10:54:18;;;;;;;;;;;;;;;4.31;62.35;102019.45;1655520;84;20633;-75
2022/03/02 10:56:45;;;;;;;;;;;;;;;4.29;62.23;102020.69;1665677;84;20131;-75
2022/03/02 10:59:17;;;;;;;;;;;;;;;4.28;62.28;102015.52;1655018;84;20132;-75
2022/03/02 11:01:44;;;;;;;;;;;;;;;4.32;62.21;102016.95;1655290;85;20134;-74
2022/03/02 11:04:11;;;;;;;;;;;;;;;4.30;61.92;102011.31;1665378;84;20473;-74
2022/03/02 11:06:38;;;;;;;;;;;;;;;4.37;62.05;102012.38;1674188;83;20201;-74
2022/03/02 11:09:05;;;;;;;;;;;;;;;4.41;62.01;102006.53;1668245;84;20205;-74
2022/03/02 11:11:33;;;;;;;;;;;;;;;4.46;61.62;102002.42;1675358;85;20184;-74
2022/03/02 11:14:00;;;;;;;;;;;;;;;4.50;62.07;102007.69;1669028;85;38236;-74
2022/03/02 11:16:26;;;;;;;;;;;;;;;4.55;61.97;101995.90;1671216;85;20217;-74
2022/03/02 11:18:52;;;;;;;;;;;;;;;4.59;61.58;101994.30;1656005;84;20114;-74
2022/03/02 11:21:30;;;;;;;;;;;;;;;4.60;61.86;101998.60;1674289;84;20304;-74
2022/03/02 11:23:59;;;;;;;;;;;;;;;4.63;61.78;101986.76;1642759;83;20518;-74
2022/03/02 11:26:34;;;;;;;;;;;;;;;4.65;61.66;101986.80;1625100;87;116198;-74
2022/03/02 11:29:03;;;;;;;;;;;;;;;4.68;62.01;101982.18;1675924;85;20205;-74
2022/03/02 11:31:31;;;;;;;;;;;;;;;4.68;61.78;101977.89;1675315;85;20465;-74
2022/03/02 11:34:12;;;;;;;;;;;;;;;4.69;61.81;101971.08;1677391;84;20486;-74
2022/03/02 11:36:41;;;;;;;;;;;;;;;4.71;61.75;101971.99;1658344;85;20127;-74
2022/03/02 11:39:08;;;;;;;;;;;;;;;4.73;62.01;101969.06;1629000;87;20125;-74
2022/03/02 11:41:37;;;;;;;;;;;;;;;4.75;61.90;101962.30;1641908;86;20130;-74
2022/03/02 11:44:26;;;;;;;;;;;;;;;4.80;61.70;101960.73;1578721;85;5001181;-74
2022/03/02 11:46:53;;;;;;;;;;;;;;;4.82;61.73;101959.95;1647026;85;20157;-74
2022/03/02 11:49:37;;;;;;;;;;;;;;;4.80;61.50;101956.89;1630472;88;20098;-74
2022/03/02 11:52:05;;;;;;;;;;;;;;;4.83;61.45;101954.42;1646451;87;20142;-74
2022/03/02 11:54:41;;;;;;;;;;;;;;;4.84;61.53;101952.31;1646939;85;20111;-74
2022/03/02 11:57:07;;;;;;;;;;;;;;;4.82;61.32;101953.96;1661216;85;20742;-74
2022/03/02 11:59:35;;;;;;;;;;;;;;;4.80;61.37;101951.77;1643224;85;20784;-74
2022/03/02 12:02:01;;;;;;;;;;;;;;;4.79;61.08;101947.47;1627871;87;20139;-74
2022/03/02 12:04:27;;;;;;;;;;;;;;;4.81;61.10;101939.41;1640345;86;20437;-74
2022/03/02 12:06:54;;;;;;;;;;;;;;;4.80;61.12;101932.13;1642495;86;20476;-74
2022/03/02 12:09:25;;;;;;;;;;;;;;;4.82;61.35;101936.89;1633918;87;20118;-74
2022/03/02 12:11:51;;;;;;;;;;;;;;;4.85;61.02;101932.27;1650507;87;20118;-74
2022/03/02 12:14:18;;;;;;;;;;;;;;;4.87;61.22;101933.18;1623439;88;20126;-74
2022/03/02 12:16:46;;;;;;;;;;;;;;;4.90;61.01;101934.55;1621559;88;20521;-74
2022/03/02 12:19:21;;;;;;;;;;;;;;;4.86;61.07;101931.44;1658306;84;20297;-74
2022/03/02 12:21:48;;;;;;;;;;;;;;;4.87;60.94;101930.61;1650364;85;20227;-74
2022/03/02 12:24:27;;;;;;;;;;;;;;;4.91;60.83;101930.75;1615441;87;20463;-74
2022/03/02 12:27:06;;;;;;;;;;;;;;;4.96;60.62;101925.75;1637331;86;20466;-74
2022/03/02 12:29:33;;;;;;;;;;;;;;;4.97;60.40;101921.08;1642272;86;20458;-74
2022/03/02 12:32:14;;;;;;;;;;;;;;;4.94;60.69;101916.73;1638097;87;20201;-73
2022/03/02 12:34:41;;;;;;;;;;;;;;;4.93;60.64;101915.00;1605165;87;20446;-74
2022/03/02 12:37:10;;;;;;;;;;;;;;;4.92;60.66;101910.70;1632791;87;20217;-74
2022/03/02 12:39:36;;;;;;;;;;;;;;;4.92;60.56;101912.39;1642253;87;20528;-74
2022/03/02 12:42:07;;;;;;;;;;;;;;;4.96;60.78;101901.41;1649179;86;20615;-74
2022/03/02 12:44:35;;;;;;;;;;;;;;;5.05;60.71;101899.50;1649864;87;20485;-74
2022/03/02 12:47:04;;;;;;;;;;;;;;;5.08;60.95;101899.17;1643552;86;20309;-74